sensor_id;sensor_type;location;lat;lon;timestamp;P1;durP1;ratioP1;P2;durP2;ratioP2
67904;SDS011;54709;43.614;1.576;2023-10-08T00:02:04;6.50;;;3.47;;
67904;SDS011;54709;43.614;1.576;2023-10-08T00:04:31;5.95;;;3.70;;
67904;SDS011;54709;43.614;1.576;2023-10-08T00:07:02;8.10;;;3.80;;
67904;SDS011;54709;43.614;1.576;2023-10-08T00:09:29;7.57;;;4.18;;
67904;SDS011;54709;43.614;1.576;2023-10-08T00:12:00;10.33;;;3.93;;
67904;SDS011;54709;43.614;1.576;2023-10-08T00:14:26;5.13;;;3.65;;
67904;SDS011;54709;43.614;1.576;2023-10-08T00:16:53;6.78;;;3.38;;
67904;SDS011;54709;43.614;1.576;2023-10-08T00:19:18;6.43;;;3.90;;
67904;SDS011;54709;43.614;1.576;2023-10-08T00:21:44;5.85;;;3.97;;
67904;SDS011;54709;43.614;1.576;2023-10-08T00:24:10;5.68;;;3.50;;
67904;SDS011;54709;43.614;1.576;2023-10-08T00:26:37;5.93;;;3.65;;
67904;SDS011;54709;43.614;1.576;2023-10-08T00:29:05;8.20;;;4.00;;
67904;SDS011;54709;43.614;1.576;2023-10-08T00:31:41;10.43;;;4.32;;
67904;SDS011;54709;43.614;1.576;2023-10-08T00:34:09;6.43;;;3.45;;
67904;SDS011;54709;43.614;1.576;2023-10-08T00:36:42;5.20;;;3.47;;
67904;SDS011;54709;43.614;1.576;2023-10-08T00:39:12;5.97;;;3.75;;
67904;SDS011;54709;43.614;1.576;2023-10-08T00:41:41;7.90;;;3.88;;
67904;SDS011;54709;43.614;1.576;2023-10-08T00:44:08;8.48;;;3.65;;
67904;SDS011;54709;43.614;1.576;2023-10-08T00:46:37;6.63;;;3.53;;
67904;SDS011;54709;43.614;1.576;2023-10-08T00:49:16;11.50;;;4.00;;
67904;SDS011;54709;43.614;1.576;2023-10-08T00:51:46;6.72;;;3.28;;
67904;SDS011;54709;43.614;1.576;2023-10-08T00:54:13;6.45;;;3.90;;
67904;SDS011;54709;43.614;1.576;2023-10-08T00:56:42;7.82;;;3.85;;
67904;SDS011;54709;43.614;1.576;2023-10-08T00:59:26;8.75;;;3.85;;
67904;SDS011;54709;43.614;1.576;2023-10-08T01:01:51;9.13;;;3.78;;
67904;SDS011;54709;43.614;1.576;2023-10-08T01:04:23;8.05;;;3.58;;
67904;SDS011;54709;43.614;1.576;2023-10-08T01:06:52;5.85;;;3.55;;
67904;SDS011;54709;43.614;1.576;2023-10-08T01:09:24;6.60;;;3.88;;
67904;SDS011;54709;43.614;1.576;2023-10-08T01:12:09;6.32;;;3.67;;
67904;SDS011;54709;43.614;1.576;2023-10-08T01:14:46;7.00;;;3.70;;
67904;SDS011;54709;43.614;1.576;2023-10-08T01:17:14;5.45;;;3.80;;
67904;SDS011;54709;43.614;1.576;2023-10-08T01:19:44;7.60;;;3.80;;
67904;SDS011;54709;43.614;1.576;2023-10-08T01:22:10;5.28;;;3.55;;
67904;SDS011;54709;43.614;1.576;2023-10-08T01:24:47;7.45;;;3.58;;
67904;SDS011;54709;43.614;1.576;2023-10-08T01:27:16;7.45;;;3.92;;
67904;SDS011;54709;43.614;1.576;2023-10-08T01:29:50;7.10;;;3.88;;
67904;SDS011;54709;43.614;1.576;2023-10-08T01:32:16;6.63;;;3.83;;
67904;SDS011;54709;43.614;1.576;2023-10-08T01:34:43;6.25;;;3.58;;
67904;SDS011;54709;43.614;1.576;2023-10-08T01:37:14;5.90;;;3.65;;
67904;SDS011;54709;43.614;1.576;2023-10-08T01:39:46;7.07;;;4.00;;
67904;SDS011;54709;43.614;1.576;2023-10-08T01:42:14;7.22;;;4.00;;
67904;SDS011;54709;43.614;1.576;2023-10-08T01:44:45;6.00;;;3.90;;
67904;SDS011;54709;43.614;1.576;2023-10-08T01:47:12;8.32;;;3.50;;
67904;SDS011;54709;43.614;1.576;2023-10-08T01:49:38;6.28;;;3.55;;
67904;SDS011;54709;43.614;1.576;2023-10-08T01:52:04;7.47;;;3.85;;
67904;SDS011;54709;43.614;1.576;2023-10-08T01:54:33;7.57;;;3.83;;
67904;SDS011;54709;43.614;1.576;2023-10-08T01:57:01;7.68;;;3.47;;
67904;SDS011;54709;43.614;1.576;2023-10-08T01:59:26;6.50;;;3.67;;
67904;SDS011;54709;43.614;1.576;2023-10-08T02:01:51;4.88;;;3.60;;
67904;SDS011;54709;43.614;1.576;2023-10-08T02:04:20;6.60;;;3.70;;
67904;SDS011;54709;43.614;1.576;2023-10-08T02:06:46;8.98;;;3.75;;
67904;SDS011;54709;43.614;1.576;2023-10-08T02:09:12;6.38;;;3.78;;
67904;SDS011;54709;43.614;1.576;2023-10-08T02:11:45;6.78;;;3.70;;
67904;SDS011;54709;43.614;1.576;2023-10-08T02:14:18;6.22;;;3.35;;
67904;SDS011;54709;43.614;1.576;2023-10-08T02:16:45;6.03;;;3.38;;
67904;SDS011;54709;43.614;1.576;2023-10-08T02:19:10;6.53;;;3.90;;
67904;SDS011;54709;43.614;1.576;2023-10-08T02:21:37;6.63;;;3.88;;
67904;SDS011;54709;43.614;1.576;2023-10-08T02:24:06;9.30;;;3.38;;
67904;SDS011;54709;43.614;1.576;2023-10-08T02:26:33;6.57;;;3.60;;
67904;SDS011;54709;43.614;1.576;2023-10-08T02:29:00;5.90;;;3.67;;
67904;SDS011;54709;43.614;1.576;2023-10-08T02:31:25;6.07;;;3.90;;
67904;SDS011;54709;43.614;1.576;2023-10-08T02:33:51;6.32;;;3.78;;
67904;SDS011;54709;43.614;1.576;2023-10-08T02:36:16;6.35;;;3.47;;
67904;SDS011;54709;43.614;1.576;2023-10-08T02:38:41;8.18;;;4.10;;
67904;SDS011;54709;43.614;1.576;2023-10-08T02:41:07;6.35;;;3.90;;
67904;SDS011;54709;43.614;1.576;2023-10-08T02:43:33;7.45;;;3.97;;
67904;SDS011;54709;43.614;1.576;2023-10-08T02:46:07;5.55;;;3.65;;
67904;SDS011;54709;43.614;1.576;2023-10-08T02:48:35;5.55;;;3.47;;
67904;SDS011;54709;43.614;1.576;2023-10-08T02:51:00;6.93;;;3.50;;
67904;SDS011;54709;43.614;1.576;2023-10-08T02:53:36;7.97;;;3.45;;
67904;SDS011;54709;43.614;1.576;2023-10-08T02:56:01;4.95;;;3.75;;
67904;SDS011;54709;43.614;1.576;2023-10-08T02:58:37;7.82;;;3.92;;
67904;SDS011;54709;43.614;1.576;2023-10-08T03:01:03;6.75;;;3.60;;
67904;SDS011;54709;43.614;1.576;2023-10-08T03:03:29;6.05;;;3.83;;
67904;SDS011;54709;43.614;1.576;2023-10-08T03:05:54;5.57;;;3.40;;
67904;SDS011;54709;43.614;1.576;2023-10-08T03:08:22;7.45;;;3.78;;
67904;SDS011;54709;43.614;1.576;2023-10-08T03:10:48;7.43;;;3.60;;
67904;SDS011;54709;43.614;1.576;2023-10-08T03:13:21;5.72;;;3.55;;
67904;SDS011;54709;43.614;1.576;2023-10-08T03:15:47;5.88;;;3.83;;
67904;SDS011;54709;43.614;1.576;2023-10-08T03:18:28;7.40;;;4.10;;
67904;SDS011;54709;43.614;1.576;2023-10-08T03:21:06;6.47;;;3.85;;
67904;SDS011;54709;43.614;1.576;2023-10-08T03:24:07;5.45;;;3.33;;
67904;SDS011;54709;43.614;1.576;2023-10-08T03:26:54;7.03;;;4.00;;
67904;SDS011;54709;43.614;1.576;2023-10-08T03:29:51;5.72;;;3.53;;
67904;SDS011;54709;43.614;1.576;2023-10-08T03:32:19;6.22;;;3.60;;
67904;SDS011;54709;43.614;1.576;2023-10-08T03:34:51;6.82;;;4.20;;
67904;SDS011;54709;43.614;1.576;2023-10-08T03:37:20;6.30;;;4.00;;
67904;SDS011;54709;43.614;1.576;2023-10-08T03:39:50;5.93;;;3.72;;
67904;SDS011;54709;43.614;1.576;2023-10-08T03:42:22;6.53;;;3.70;;
67904;SDS011;54709;43.614;1.576;2023-10-08T03:44:48;7.03;;;3.83;;
67904;SDS011;54709;43.614;1.576;2023-10-08T03:47:23;7.90;;;4.10;;
67904;SDS011;54709;43.614;1.576;2023-10-08T03:49:51;10.15;;;4.78;;
67904;SDS011;54709;43.614;1.576;2023-10-08T03:52:19;12.55;;;5.40;;
67904;SDS011;54709;43.614;1.576;2023-10-08T03:54:48;8.90;;;5.28;;
67904;SDS011;54709;43.614;1.576;2023-10-08T03:57:20;13.68;;;6.40;;
67904;SDS011;54709;43.614;1.576;2023-10-08T03:59:54;10.80;;;5.80;;
67904;SDS011;54709;43.614;1.576;2023-10-08T04:02:23;13.48;;;4.55;;
67904;SDS011;54709;43.614;1.576;2023-10-08T04:05:04;9.57;;;4.60;;
67904;SDS011;54709;43.614;1.576;2023-10-08T04:07:44;7.97;;;3.90;;
67904;SDS011;54709;43.614;1.576;2023-10-08T04:10:31;10.30;;;3.92;;
67904;SDS011;54709;43.614;1.576;2023-10-08T04:13:06;7.07;;;3.88;;
67904;SDS011;54709;43.614;1.576;2023-10-08T04:15:36;8.88;;;3.88;;
67904;SDS011;54709;43.614;1.576;2023-10-08T04:18:06;6.93;;;3.97;;
67904;SDS011;54709;43.614;1.576;2023-10-08T04:20:35;7.45;;;4.43;;
67904;SDS011;54709;43.614;1.576;2023-10-08T04:23:03;8.88;;;4.30;;
67904;SDS011;54709;43.614;1.576;2023-10-08T04:25:46;9.88;;;4.47;;
67904;SDS011;54709;43.614;1.576;2023-10-08T04:28:12;9.23;;;4.18;;
67904;SDS011;54709;43.614;1.576;2023-10-08T04:30:39;7.80;;;4.30;;
67904;SDS011;54709;43.614;1.576;2023-10-08T04:33:07;8.95;;;4.43;;
67904;SDS011;54709;43.614;1.576;2023-10-08T04:35:36;8.18;;;4.15;;
67904;SDS011;54709;43.614;1.576;2023-10-08T04:38:13;8.20;;;4.43;;
67904;SDS011;54709;43.614;1.576;2023-10-08T04:40:43;7.43;;;4.35;;
67904;SDS011;54709;43.614;1.576;2023-10-08T04:43:19;9.23;;;4.15;;
67904;SDS011;54709;43.614;1.576;2023-10-08T04:45:53;10.00;;;4.65;;
67904;SDS011;54709;43.614;1.576;2023-10-08T04:48:29;7.03;;;3.95;;
67904;SDS011;54709;43.614;1.576;2023-10-08T04:50:57;8.90;;;3.95;;
67904;SDS011;54709;43.614;1.576;2023-10-08T04:56:05;7.57;;;4.50;;
67904;SDS011;54709;43.614;1.576;2023-10-08T04:58:32;7.55;;;4.20;;
67904;SDS011;54709;43.614;1.576;2023-10-08T05:01:05;6.30;;;4.25;;
67904;SDS011;54709;43.614;1.576;2023-10-08T05:03:49;7.53;;;4.32;;
67904;SDS011;54709;43.614;1.576;2023-10-08T05:06:28;7.20;;;4.07;;
67904;SDS011;54709;43.614;1.576;2023-10-08T05:09:03;7.18;;;4.18;;
67904;SDS011;54709;43.614;1.576;2023-10-08T05:11:37;9.10;;;4.85;;
67904;SDS011;54709;43.614;1.576;2023-10-08T05:14:32;8.05;;;4.18;;
67904;SDS011;54709;43.614;1.576;2023-10-08T05:16:57;7.00;;;4.70;;
67904;SDS011;54709;43.614;1.576;2023-10-08T05:19:40;9.93;;;4.78;;
67904;SDS011;54709;43.614;1.576;2023-10-08T05:22:09;7.47;;;4.07;;
67904;SDS011;54709;43.614;1.576;2023-10-08T05:24:54;9.65;;;4.22;;
67904;SDS011;54709;43.614;1.576;2023-10-08T05:27:45;9.98;;;4.50;;
67904;SDS011;54709;43.614;1.576;2023-10-08T05:30:11;7.93;;;4.47;;
67904;SDS011;54709;43.614;1.576;2023-10-08T05:32:41;9.40;;;4.88;;
67904;SDS011;54709;43.614;1.576;2023-10-08T05:35:33;9.20;;;4.68;;
67904;SDS011;54709;43.614;1.576;2023-10-08T05:38:06;7.25;;;4.40;;
67904;SDS011;54709;43.614;1.576;2023-10-08T05:40:46;6.93;;;4.40;;
67904;SDS011;54709;43.614;1.576;2023-10-08T05:43:27;8.82;;;4.70;;
67904;SDS011;54709;43.614;1.576;2023-10-08T05:46:11;8.15;;;4.80;;
67904;SDS011;54709;43.614;1.576;2023-10-08T05:48:48;9.23;;;4.68;;
67904;SDS011;54709;43.614;1.576;2023-10-08T05:51:33;9.05;;;5.03;;
67904;SDS011;54709;43.614;1.576;2023-10-08T05:56:56;9.30;;;4.53;;
67904;SDS011;54709;43.614;1.576;2023-10-08T05:59:37;6.55;;;4.40;;
67904;SDS011;54709;43.614;1.576;2023-10-08T06:02:20;8.45;;;4.70;;
67904;SDS011;54709;43.614;1.576;2023-10-08T06:04:54;8.57;;;5.05;;
67904;SDS011;54709;43.614;1.576;2023-10-08T06:10:26;10.43;;;4.53;;
67904;SDS011;54709;43.614;1.576;2023-10-08T06:12:57;7.63;;;4.40;;
67904;SDS011;54709;43.614;1.576;2023-10-08T06:15:35;9.57;;;4.93;;
67904;SDS011;54709;43.614;1.576;2023-10-08T06:18:17;13.35;;;5.40;;
67904;SDS011;54709;43.614;1.576;2023-10-08T06:20:43;9.52;;;4.82;;
67904;SDS011;54709;43.614;1.576;2023-10-08T06:23:12;12.18;;;4.60;;
67904;SDS011;54709;43.614;1.576;2023-10-08T06:25:43;8.65;;;5.10;;
67904;SDS011;54709;43.614;1.576;2023-10-08T06:28:12;11.23;;;5.32;;
67904;SDS011;54709;43.614;1.576;2023-10-08T06:30:37;10.32;;;5.05;;
67904;SDS011;54709;43.614;1.576;2023-10-08T06:33:06;9.30;;;5.10;;
67904;SDS011;54709;43.614;1.576;2023-10-08T06:35:34;15.80;;;5.25;;
67904;SDS011;54709;43.614;1.576;2023-10-08T06:38:00;11.50;;;5.60;;
67904;SDS011;54709;43.614;1.576;2023-10-08T06:40:32;9.57;;;5.32;;
67904;SDS011;54709;43.614;1.576;2023-10-08T06:43:01;11.35;;;5.38;;
67904;SDS011;54709;43.614;1.576;2023-10-08T06:45:36;12.10;;;5.18;;
67904;SDS011;54709;43.614;1.576;2023-10-08T06:48:09;8.88;;;5.07;;
67904;SDS011;54709;43.614;1.576;2023-10-08T06:50:42;8.68;;;5.32;;
67904;SDS011;54709;43.614;1.576;2023-10-08T06:53:09;9.07;;;4.95;;
67904;SDS011;54709;43.614;1.576;2023-10-08T06:55:38;11.10;;;5.43;;
67904;SDS011;54709;43.614;1.576;2023-10-08T06:58:08;9.10;;;5.22;;
67904;SDS011;54709;43.614;1.576;2023-10-08T07:00:36;10.65;;;4.70;;
67904;SDS011;54709;43.614;1.576;2023-10-08T07:05:40;7.30;;;4.75;;
67904;SDS011;54709;43.614;1.576;2023-10-08T07:08:10;9.90;;;4.88;;
67904;SDS011;54709;43.614;1.576;2023-10-08T07:10:38;8.02;;;4.38;;
67904;SDS011;54709;43.614;1.576;2023-10-08T07:13:04;10.50;;;5.68;;
67904;SDS011;54709;43.614;1.576;2023-10-08T07:15:33;8.68;;;4.60;;
67904;SDS011;54709;43.614;1.576;2023-10-08T07:17:58;11.05;;;4.82;;
67904;SDS011;54709;43.614;1.576;2023-10-08T07:20:34;7.60;;;4.53;;
67904;SDS011;54709;43.614;1.576;2023-10-08T07:23:04;10.38;;;4.63;;
67904;SDS011;54709;43.614;1.576;2023-10-08T07:25:43;9.90;;;4.70;;
67904;SDS011;54709;43.614;1.576;2023-10-08T07:28:17;9.77;;;4.70;;
67904;SDS011;54709;43.614;1.576;2023-10-08T07:30:44;11.73;;;5.22;;
67904;SDS011;54709;43.614;1.576;2023-10-08T07:33:10;9.40;;;4.95;;
67904;SDS011;54709;43.614;1.576;2023-10-08T07:35:50;12.18;;;5.00;;
67904;SDS011;54709;43.614;1.576;2023-10-08T07:38:37;9.25;;;5.00;;
67904;SDS011;54709;43.614;1.576;2023-10-08T07:41:08;10.07;;;5.20;;
67904;SDS011;54709;43.614;1.576;2023-10-08T07:43:37;7.75;;;4.60;;
67904;SDS011;54709;43.614;1.576;2023-10-08T07:46:03;9.15;;;4.55;;
67904;SDS011;54709;43.614;1.576;2023-10-08T07:48:28;8.40;;;4.60;;
67904;SDS011;54709;43.614;1.576;2023-10-08T07:50:55;9.18;;;4.93;;
67904;SDS011;54709;43.614;1.576;2023-10-08T07:53:22;10.10;;;5.05;;
67904;SDS011;54709;43.614;1.576;2023-10-08T07:55:49;7.40;;;5.20;;
67904;SDS011;54709;43.614;1.576;2023-10-08T07:58:15;9.32;;;5.22;;
67904;SDS011;54709;43.614;1.576;2023-10-08T08:00:41;10.75;;;5.85;;
67904;SDS011;54709;43.614;1.576;2023-10-08T08:03:07;7.88;;;4.95;;
67904;SDS011;54709;43.614;1.576;2023-10-08T08:05:32;11.20;;;5.40;;
67904;SDS011;54709;43.614;1.576;2023-10-08T08:07:59;10.50;;;5.63;;
67904;SDS011;54709;43.614;1.576;2023-10-08T08:10:31;8.38;;;5.60;;
67904;SDS011;54709;43.614;1.576;2023-10-08T08:13:02;11.05;;;5.45;;
67904;SDS011;54709;43.614;1.576;2023-10-08T08:15:31;11.20;;;5.55;;
67904;SDS011;54709;43.614;1.576;2023-10-08T08:17:58;8.18;;;5.15;;
67904;SDS011;54709;43.614;1.576;2023-10-08T08:20:23;8.20;;;5.15;;
67904;SDS011;54709;43.614;1.576;2023-10-08T08:22:59;9.25;;;4.60;;
67904;SDS011;54709;43.614;1.576;2023-10-08T08:25:34;6.82;;;4.38;;
67904;SDS011;54709;43.614;1.576;2023-10-08T08:28:41;6.35;;;4.28;;
67904;SDS011;54709;43.614;1.576;2023-10-08T08:31:07;9.68;;;4.45;;
67904;SDS011;54709;43.614;1.576;2023-10-08T08:33:41;5.25;;;4.22;;
67904;SDS011;54709;43.614;1.576;2023-10-08T08:36:19;7.85;;;4.22;;
67904;SDS011;54709;43.614;1.576;2023-10-08T08:38:46;8.80;;;4.50;;
67904;SDS011;54709;43.614;1.576;2023-10-08T08:41:12;6.68;;;4.22;;
67904;SDS011;54709;43.614;1.576;2023-10-08T08:43:38;8.25;;;4.35;;
67904;SDS011;54709;43.614;1.576;2023-10-08T08:46:09;6.75;;;3.95;;
67904;SDS011;54709;43.614;1.576;2023-10-08T08:48:37;8.48;;;4.70;;
67904;SDS011;54709;43.614;1.576;2023-10-08T08:51:05;8.48;;;4.90;;
67904;SDS011;54709;43.614;1.576;2023-10-08T08:53:32;7.80;;;4.45;;
67904;SDS011;54709;43.614;1.576;2023-10-08T08:55:58;10.40;;;4.75;;
67904;SDS011;54709;43.614;1.576;2023-10-08T08:58:25;7.05;;;4.10;;
67904;SDS011;54709;43.614;1.576;2023-10-08T09:00:51;7.40;;;4.00;;
67904;SDS011;54709;43.614;1.576;2023-10-08T09:03:17;6.47;;;3.92;;
67904;SDS011;54709;43.614;1.576;2023-10-08T09:05:44;5.97;;;4.03;;
67904;SDS011;54709;43.614;1.576;2023-10-08T09:08:15;7.75;;;3.88;;
67904;SDS011;54709;43.614;1.576;2023-10-08T09:10:43;11.63;;;4.85;;
67904;SDS011;54709;43.614;1.576;2023-10-08T09:13:20;8.85;;;4.43;;
67904;SDS011;54709;43.614;1.576;2023-10-08T09:15:47;10.88;;;5.13;;
67904;SDS011;54709;43.614;1.576;2023-10-08T09:18:13;22.67;;;4.80;;
67904;SDS011;54709;43.614;1.576;2023-10-08T09:20:39;17.85;;;4.38;;
67904;SDS011;54709;43.614;1.576;2023-10-08T09:23:13;14.38;;;4.30;;
67904;SDS011;54709;43.614;1.576;2023-10-08T09:25:44;10.52;;;4.20;;
67904;SDS011;54709;43.614;1.576;2023-10-08T09:28:10;12.57;;;4.70;;
67904;SDS011;54709;43.614;1.576;2023-10-08T09:30:39;11.68;;;4.68;;
67904;SDS011;54709;43.614;1.576;2023-10-08T09:33:10;10.57;;;4.50;;
67904;SDS011;54709;43.614;1.576;2023-10-08T09:35:37;9.35;;;4.43;;
67904;SDS011;54709;43.614;1.576;2023-10-08T09:38:03;8.93;;;3.85;;
67904;SDS011;54709;43.614;1.576;2023-10-08T09:40:29;9.50;;;4.50;;
67904;SDS011;54709;43.614;1.576;2023-10-08T09:42:55;6.78;;;3.90;;
67904;SDS011;54709;43.614;1.576;2023-10-08T09:45:21;7.57;;;4.50;;
67904;SDS011;54709;43.614;1.576;2023-10-08T09:47:52;12.75;;;4.47;;
67904;SDS011;54709;43.614;1.576;2023-10-08T09:50:20;8.15;;;4.13;;
67904;SDS011;54709;43.614;1.576;2023-10-08T09:55:31;8.80;;;4.03;;
67904;SDS011;54709;43.614;1.576;2023-10-08T09:57:56;11.57;;;6.03;;
67904;SDS011;54709;43.614;1.576;2023-10-08T10:00:22;10.57;;;5.97;;
67904;SDS011;54709;43.614;1.576;2023-10-08T10:02:56;8.40;;;4.78;;
67904;SDS011;54709;43.614;1.576;2023-10-08T10:05:27;14.80;;;5.10;;
67904;SDS011;54709;43.614;1.576;2023-10-08T10:07:57;10.13;;;6.72;;
67904;SDS011;54709;43.614;1.576;2023-10-08T10:10:26;11.38;;;5.57;;
67904;SDS011;54709;43.614;1.576;2023-10-08T10:12:52;10.20;;;5.15;;
67904;SDS011;54709;43.614;1.576;2023-10-08T10:15:20;6.57;;;3.88;;
67904;SDS011;54709;43.614;1.576;2023-10-08T10:17:47;7.57;;;4.13;;
67904;SDS011;54709;43.614;1.576;2023-10-08T10:20:12;8.38;;;4.40;;
67904;SDS011;54709;43.614;1.576;2023-10-08T10:22:38;7.55;;;4.50;;
67904;SDS011;54709;43.614;1.576;2023-10-08T10:25:04;6.93;;;4.40;;
67904;SDS011;54709;43.614;1.576;2023-10-08T10:28:25;5.93;;;3.95;;
67904;SDS011;54709;43.614;1.576;2023-10-08T10:30:25;9.07;;;3.35;;
67904;SDS011;54709;43.614;1.576;2023-10-08T10:32:52;7.70;;;4.00;;
67904;SDS011;54709;43.614;1.576;2023-10-08T10:35:18;6.43;;;3.80;;
67904;SDS011;54709;43.614;1.576;2023-10-08T10:37:48;7.68;;;3.50;;
67904;SDS011;54709;43.614;1.576;2023-10-08T10:40:28;6.45;;;3.80;;
67904;SDS011;54709;43.614;1.576;2023-10-08T10:43:06;5.85;;;3.58;;
67904;SDS011;54709;43.614;1.576;2023-10-08T10:45:32;6.10;;;3.60;;
67904;SDS011;54709;43.614;1.576;2023-10-08T10:48:04;5.35;;;3.85;;
67904;SDS011;54709;43.614;1.576;2023-10-08T10:50:39;6.78;;;3.72;;
67904;SDS011;54709;43.614;1.576;2023-10-08T10:53:14;8.98;;;3.60;;
67904;SDS011;54709;43.614;1.576;2023-10-08T10:55:42;5.60;;;3.03;;
67904;SDS011;54709;43.614;1.576;2023-10-08T10:58:23;8.30;;;3.72;;
67904;SDS011;54709;43.614;1.576;2023-10-08T11:00:49;5.22;;;3.17;;
67904;SDS011;54709;43.614;1.576;2023-10-08T11:03:22;4.22;;;3.08;;
67904;SDS011;54709;43.614;1.576;2023-10-08T11:05:55;6.07;;;3.70;;
67904;SDS011;54709;43.614;1.576;2023-10-08T11:08:24;6.80;;;3.75;;
67904;SDS011;54709;43.614;1.576;2023-10-08T11:10:51;5.28;;;3.45;;
67904;SDS011;54709;43.614;1.576;2023-10-08T11:13:21;5.47;;;3.30;;
67904;SDS011;54709;43.614;1.576;2023-10-08T11:15:53;6.97;;;3.55;;
67904;SDS011;54709;43.614;1.576;2023-10-08T11:18:20;8.88;;;3.40;;
67904;SDS011;54709;43.614;1.576;2023-10-08T11:20:46;4.78;;;3.28;;
67904;SDS011;54709;43.614;1.576;2023-10-08T11:23:35;4.80;;;3.47;;
67904;SDS011;54709;43.614;1.576;2023-10-08T11:26:04;6.45;;;3.53;;
67904;SDS011;54709;43.614;1.576;2023-10-08T11:31:02;6.32;;;3.20;;
67904;SDS011;54709;43.614;1.576;2023-10-08T11:33:37;4.97;;;3.28;;
67904;SDS011;54709;43.614;1.576;2023-10-08T11:36:04;4.63;;;3.00;;
67904;SDS011;54709;43.614;1.576;2023-10-08T11:38:41;8.80;;;3.58;;
67904;SDS011;54709;43.614;1.576;2023-10-08T11:41:13;8.73;;;3.60;;
67904;SDS011;54709;43.614;1.576;2023-10-08T11:43:52;6.80;;;3.30;;
67904;SDS011;54709;43.614;1.576;2023-10-08T11:46:29;5.28;;;3.67;;
67904;SDS011;54709;43.614;1.576;2023-10-08T11:49:06;8.02;;;3.40;;
67904;SDS011;54709;43.614;1.576;2023-10-08T11:51:32;5.85;;;3.63;;
67904;SDS011;54709;43.614;1.576;2023-10-08T11:53:59;6.30;;;3.10;;
67904;SDS011;54709;43.614;1.576;2023-10-08T11:56:30;7.07;;;3.33;;
67904;SDS011;54709;43.614;1.576;2023-10-08T11:58:57;7.90;;;3.42;;
67904;SDS011;54709;43.614;1.576;2023-10-08T12:01:26;7.95;;;3.33;;
67904;SDS011;54709;43.614;1.576;2023-10-08T12:03:52;6.20;;;3.58;;
67904;SDS011;54709;43.614;1.576;2023-10-08T12:06:24;6.03;;;3.13;;
67904;SDS011;54709;43.614;1.576;2023-10-08T12:08:50;8.80;;;3.67;;
67904;SDS011;54709;43.614;1.576;2023-10-08T12:11:18;5.32;;;3.30;;
67904;SDS011;54709;43.614;1.576;2023-10-08T12:13:44;5.43;;;3.40;;
67904;SDS011;54709;43.614;1.576;2023-10-08T12:16:15;6.68;;;3.40;;
67904;SDS011;54709;43.614;1.576;2023-10-08T12:18:46;4.25;;;3.38;;
67904;SDS011;54709;43.614;1.576;2023-10-08T12:21:18;9.43;;;3.30;;
67904;SDS011;54709;43.614;1.576;2023-10-08T12:23:45;5.70;;;3.33;;
67904;SDS011;54709;43.614;1.576;2023-10-08T12:26:11;9.73;;;3.42;;
67904;SDS011;54709;43.614;1.576;2023-10-08T12:28:40;5.50;;;3.45;;
67904;SDS011;54709;43.614;1.576;2023-10-08T12:31:10;5.55;;;3.38;;
67904;SDS011;54709;43.614;1.576;2023-10-08T12:33:40;7.97;;;3.73;;
67904;SDS011;54709;43.614;1.576;2023-10-08T12:36:08;6.25;;;3.10;;
67904;SDS011;54709;43.614;1.576;2023-10-08T12:38:40;6.75;;;3.50;;
67904;SDS011;54709;43.614;1.576;2023-10-08T12:41:07;7.50;;;3.60;;
67904;SDS011;54709;43.614;1.576;2023-10-08T12:46:04;6.43;;;3.63;;
67904;SDS011;54709;43.614;1.576;2023-10-08T12:48:35;7.97;;;3.40;;
67904;SDS011;54709;43.614;1.576;2023-10-08T12:51:02;7.85;;;3.63;;
67904;SDS011;54709;43.614;1.576;2023-10-08T12:53:30;7.03;;;3.45;;
67904;SDS011;54709;43.614;1.576;2023-10-08T12:56:01;8.02;;;3.63;;
67904;SDS011;54709;43.614;1.576;2023-10-08T12:58:31;6.00;;;3.47;;
67904;SDS011;54709;43.614;1.576;2023-10-08T13:01:04;7.13;;;3.53;;
67904;SDS011;54709;43.614;1.576;2023-10-08T13:03:31;9.68;;;3.50;;
67904;SDS011;54709;43.614;1.576;2023-10-08T13:05:57;6.47;;;3.30;;
67904;SDS011;54709;43.614;1.576;2023-10-08T13:08:31;9.20;;;3.38;;
67904;SDS011;54709;43.614;1.576;2023-10-08T13:10:58;10.52;;;3.47;;
67904;SDS011;54709;43.614;1.576;2023-10-08T13:13:26;7.43;;;3.47;;
67904;SDS011;54709;43.614;1.576;2023-10-08T13:15:52;6.93;;;3.13;;
67904;SDS011;54709;43.614;1.576;2023-10-08T13:18:24;7.97;;;3.88;;
67904;SDS011;54709;43.614;1.576;2023-10-08T13:20:50;6.07;;;3.30;;
67904;SDS011;54709;43.614;1.576;2023-10-08T13:23:16;8.43;;;3.60;;
67904;SDS011;54709;43.614;1.576;2023-10-08T13:25:43;6.30;;;3.72;;
67904;SDS011;54709;43.614;1.576;2023-10-08T13:28:11;8.68;;;3.53;;
67904;SDS011;54709;43.614;1.576;2023-10-08T13:30:37;7.68;;;3.72;;
67904;SDS011;54709;43.614;1.576;2023-10-08T13:33:02;5.80;;;3.55;;
67904;SDS011;54709;43.614;1.576;2023-10-08T13:35:28;4.93;;;3.10;;
67904;SDS011;54709;43.614;1.576;2023-10-08T13:37:53;5.18;;;3.45;;
67904;SDS011;54709;43.614;1.576;2023-10-08T13:40:20;6.38;;;3.25;;
67904;SDS011;54709;43.614;1.576;2023-10-08T13:42:57;5.88;;;3.45;;
67904;SDS011;54709;43.614;1.576;2023-10-08T13:45:22;7.78;;;3.50;;
67904;SDS011;54709;43.614;1.576;2023-10-08T13:47:51;5.97;;;3.58;;
67904;SDS011;54709;43.614;1.576;2023-10-08T13:50:17;5.75;;;3.33;;
67904;SDS011;54709;43.614;1.576;2023-10-08T13:52:43;6.00;;;3.63;;
67904;SDS011;54709;43.614;1.576;2023-10-08T13:55:09;6.38;;;3.40;;
67904;SDS011;54709;43.614;1.576;2023-10-08T13:57:41;6.00;;;3.40;;
67904;SDS011;54709;43.614;1.576;2023-10-08T14:00:07;8.57;;;3.72;;
67904;SDS011;54709;43.614;1.576;2023-10-08T14:02:40;8.20;;;4.10;;
67904;SDS011;54709;43.614;1.576;2023-10-08T14:05:16;7.90;;;3.60;;
67904;SDS011;54709;43.614;1.576;2023-10-08T14:07:42;5.03;;;3.55;;
67904;SDS011;54709;43.614;1.576;2023-10-08T14:10:10;8.30;;;3.60;;
67904;SDS011;54709;43.614;1.576;2023-10-08T14:12:43;7.35;;;3.67;;
67904;SDS011;54709;43.614;1.576;2023-10-08T14:15:09;7.50;;;3.78;;
67904;SDS011;54709;43.614;1.576;2023-10-08T14:17:39;7.53;;;3.30;;
67904;SDS011;54709;43.614;1.576;2023-10-08T14:20:07;8.05;;;3.38;;
67904;SDS011;54709;43.614;1.576;2023-10-08T14:22:38;5.65;;;3.53;;
67904;SDS011;54709;43.614;1.576;2023-10-08T14:25:05;7.47;;;3.70;;
67904;SDS011;54709;43.614;1.576;2023-10-08T14:27:37;6.40;;;3.67;;
67904;SDS011;54709;43.614;1.576;2023-10-08T14:30:06;7.20;;;3.25;;
67904;SDS011;54709;43.614;1.576;2023-10-08T14:32:40;8.07;;;3.53;;
67904;SDS011;54709;43.614;1.576;2023-10-08T14:35:10;7.00;;;3.80;;
67904;SDS011;54709;43.614;1.576;2023-10-08T14:37:55;6.70;;;3.55;;
67904;SDS011;54709;43.614;1.576;2023-10-08T14:40:39;7.35;;;3.70;;
67904;SDS011;54709;43.614;1.576;2023-10-08T14:43:23;10.27;;;3.72;;
67904;SDS011;54709;43.614;1.576;2023-10-08T14:45:49;6.68;;;3.35;;
67904;SDS011;54709;43.614;1.576;2023-10-08T14:48:14;5.57;;;3.65;;
67904;SDS011;54709;43.614;1.576;2023-10-08T14:50:40;6.20;;;3.80;;
67904;SDS011;54709;43.614;1.576;2023-10-08T14:53:07;9.25;;;4.00;;
67904;SDS011;54709;43.614;1.576;2023-10-08T14:55:32;8.77;;;3.90;;
67904;SDS011;54709;43.614;1.576;2023-10-08T14:58:01;5.53;;;3.70;;
67904;SDS011;54709;43.614;1.576;2023-10-08T15:00:32;8.20;;;3.58;;
67904;SDS011;54709;43.614;1.576;2023-10-08T15:03:01;8.20;;;3.47;;
67904;SDS011;54709;43.614;1.576;2023-10-08T15:05:28;5.78;;;3.45;;
67904;SDS011;54709;43.614;1.576;2023-10-08T15:07:53;7.95;;;3.85;;
67904;SDS011;54709;43.614;1.576;2023-10-08T15:10:19;4.97;;;3.63;;
67904;SDS011;54709;43.614;1.576;2023-10-08T15:12:46;5.65;;;3.28;;
67904;SDS011;54709;43.614;1.576;2023-10-08T15:15:12;5.85;;;3.75;;
67904;SDS011;54709;43.614;1.576;2023-10-08T15:17:46;7.95;;;3.60;;
67904;SDS011;54709;43.614;1.576;2023-10-08T15:20:15;6.10;;;3.45;;
67904;SDS011;54709;43.614;1.576;2023-10-08T15:22:44;8.50;;;3.70;;
67904;SDS011;54709;43.614;1.576;2023-10-08T15:25:11;8.18;;;3.78;;